Time;durP1;ratioP1;P1;durP2;ratioP2;P2;SDS_P1;SDS_P2;PMS_P1;PMS_P2;Temp;Humidity;BMP_temperature;BMP_pressure;BME280_temperature;BME280_humidity;BME280_pressure;Samples;Min_cycle;Max_cycle;Signal;HPM_P1;HPM_P2
2022/06/04 00:00:47;;;;;;;18.48;10.13;;;11.10;1.00;;;;;;4985067;28;20046;-82
2022/06/04 00:03:13;;;;;;;15.43;9.45;;;11.10;1.00;;;;;;5002914;28;20039;-82
2022/06/04 00:05:43;;;;;;;15.55;9.70;;;11.10;99.90;;;;;;5011253;28;20050;-83
2022/06/04 00:08:10;;;;;;;16.25;9.90;;;11.00;99.90;;;;;;4988790;28;20480;-82
2022/06/04 00:16:23;;;;;;;16.88;9.30;;;11.10;1.00;;;;;;4989834;28;20477;-82
2022/06/04 00:18:49;;;;;;;15.20;9.77;;;11.10;1.00;;;;;;4989281;28;20040;-82
2022/06/04 00:21:15;;;;;;;13.05;9.15;;;11.10;99.90;;;;;;4983347;28;20366;-82
2022/06/04 00:23:42;;;;;;;19.17;9.65;;;11.00;1.00;;;;;;4986036;28;20488;-83
2022/06/04 00:26:10;;;;;;;15.20;9.55;;;11.10;99.90;;;;;;4983626;28;20041;-83
2022/06/04 00:28:36;;;;;;;18.23;9.40;;;11.10;99.90;;;;;;4984505;28;20045;-83
2022/06/04 00:31:02;;;;;;;17.85;9.23;;;11.10;99.90;;;;;;4981028;28;20084;-83
2022/06/04 00:33:28;;;;;;;15.50;9.73;;;11.10;99.90;;;;;;4995772;28;20118;-83
2022/06/04 00:35:56;;;;;;;14.65;10.02;;;11.10;99.90;;;;;;4981398;28;20137;-83
2022/06/04 00:38:25;;;;;;;20.00;9.82;;;11.10;99.90;;;;;;4994290;28;20038;-83
2022/06/04 00:41:22;;;;;;;18.13;10.43;;;11.10;99.90;;;;;;5003743;28;20121;-83
2022/06/04 00:43:55;;;;;;;16.80;10.07;;;11.10;99.90;;;;;;4985708;28;20297;-83
2022/06/04 00:46:39;;;;;;;19.83;10.35;;;11.00;99.90;;;;;;5008797;28;20342;-83
2022/06/04 00:49:06;;;;;;;16.67;10.57;;;11.10;99.90;;;;;;4991425;28;20043;-83
2022/06/04 00:51:35;;;;;;;18.55;11.40;;;11.00;99.90;;;;;;4985663;28;20149;-83
2022/06/04 00:54:02;;;;;;;22.60;11.43;;;11.00;99.90;;;;;;5010747;28;20914;-83
2022/06/04 00:56:37;;;;;;;18.25;11.63;;;11.10;99.90;;;;;;4981931;28;20038;-83
2022/06/04 00:59:34;;;;;;;19.15;11.43;;;11.00;99.90;;;;;;4986873;28;20638;-83
2022/06/04 01:02:21;;;;;;;18.08;11.15;;;11.00;99.90;;;;;;4984898;28;20081;-84
2022/06/04 01:05:40;;;;;;;17.20;10.73;;;11.00;99.90;;;;;;5009878;28;20127;-82
2022/06/04 01:08:26;;;;;;;17.95;11.27;;;11.00;99.90;;;;;;4939727;28;20473;-83
2022/06/04 01:10:58;;;;;;;18.40;10.55;;;11.00;99.90;;;;;;4968927;28;20049;-83
2022/06/04 01:13:38;;;;;;;19.08;10.90;;;11.00;99.90;;;;;;5009566;28;20049;-83
2022/06/04 01:16:19;;;;;;;16.77;11.07;;;11.00;99.90;;;;;;4983079;28;20049;-84
2022/06/04 01:18:58;;;;;;;17.95;11.35;;;11.00;99.90;;;;;;4986185;28;20038;-83
2022/06/04 01:21:27;;;;;;;19.10;10.88;;;11.00;99.90;;;;;;4982366;28;20468;-83
2022/06/04 01:24:13;;;;;;;17.65;11.07;;;11.00;99.90;;;;;;5011199;28;20038;-83
2022/06/04 01:26:48;;;;;;;17.42;10.52;;;11.00;99.90;;;;;;4992926;28;20034;-83
2022/06/04 01:29:27;;;;;;;16.08;10.43;;;10.90;99.90;;;;;;4985544;28;20117;-83
2022/06/04 01:32:07;;;;;;;20.40;10.98;;;10.90;99.90;;;;;;4986271;28;20058;-83
2022/06/04 01:34:44;;;;;;;18.20;10.90;;;10.90;99.90;;;;;;4984519;28;20580;-83
2022/06/04 01:37:24;;;;;;;17.00;10.50;;;10.90;99.90;;;;;;4982575;28;20046;-83
2022/06/04 01:42:44;;;;;;;18.58;10.50;;;10.80;99.90;;;;;;4985756;28;20058;-83
2022/06/04 01:45:12;;;;;;;18.55;10.63;;;10.80;99.90;;;;;;4999488;28;20129;-83
2022/06/04 01:47:39;;;;;;;19.75;11.18;;;10.80;99.90;;;;;;4985839;28;20556;-83
2022/06/04 01:50:12;;;;;;;19.05;11.13;;;10.80;99.90;;;;;;5011159;28;20050;-83
2022/06/04 01:52:39;;;;;;;19.50;10.77;;;10.70;99.90;;;;;;5010432;28;20157;-83
2022/06/04 01:55:12;;;;;;;22.40;10.68;;;10.80;99.90;;;;;;4980074;28;20169;-83
2022/06/04 01:58:03;;;;;;;21.67;11.10;;;10.80;99.90;;;;;;4982601;28;20455;-83
2022/06/04 02:00:51;;;;;;;20.10;11.00;;;10.80;99.90;;;;;;4978736;28;20359;-83
2022/06/04 02:03:54;;;;;;;16.63;10.45;;;10.70;99.90;;;;;;4984957;28;20061;-83
2022/06/04 02:06:23;;;;;;;20.33;10.85;;;10.70;99.90;;;;;;4973373;28;20104;-83
2022/06/04 02:08:55;;;;;;;17.42;11.18;;;10.60;99.90;;;;;;4983171;28;20047;-83
2022/06/04 02:11:24;;;;;;;21.00;10.98;;;10.60;99.90;;;;;;5005832;28;20104;-83
2022/06/04 02:13:54;;;;;;;19.67;10.07;;;10.60;99.90;;;;;;5006419;28;20042;-83
2022/06/04 02:16:22;;;;;;;20.83;10.18;;;10.60;99.90;;;;;;4979936;28;20413;-83
2022/06/04 02:18:49;;;;;;;14.93;10.50;;;10.60;99.90;;;;;;4985400;28;20053;-84
2022/06/04 02:21:18;;;;;;;15.60;9.70;;;10.50;99.90;;;;;;4993325;28;20045;-83
2022/06/04 02:23:45;;;;;;;16.10;10.38;;;10.50;99.90;;;;;;5009755;28;20052;-83
2022/06/04 02:26:12;;;;;;;21.77;10.50;;;10.40;99.90;;;;;;4982088;28;20037;-83
2022/06/04 02:28:37;;;;;;;18.00;10.40;;;10.50;99.90;;;;;;4978730;28;20050;-84
2022/06/04 02:31:26;;;;;;;16.08;9.75;;;10.50;1.00;;;;;;4983897;28;20042;-83
2022/06/04 02:33:56;;;;;;;17.52;9.65;;;10.50;99.90;;;;;;4988786;28;20121;-83
2022/06/04 02:36:47;;;;;;;21.48;10.00;;;10.50;99.90;;;;;;4981993;28;20057;-83
2022/06/04 02:39:23;;;;;;;20.50;10.27;;;10.40;99.90;;;;;;5013308;28;20089;-83
2022/06/04 02:41:58;;;;;;;18.88;10.30;;;10.40;99.90;;;;;;4989180;28;20054;-83
2022/06/04 02:44:29;;;;;;;;;;;10.40;99.90;;;;;;4985388;28;20588;-83
2022/06/04 02:47:05;;;;;;;15.50;8.85;;;10.50;99.90;;;;;;4985043;28;19940;-82
2022/06/04 02:49:39;;;;;;;21.27;9.45;;;10.40;99.90;;;;;;4984276;28;20568;-83
2022/06/04 02:52:08;;;;;;;15.63;9.35;;;10.40;99.90;;;;;;4986156;28;20050;-83
2022/06/04 02:54:40;;;;;;;16.77;9.52;;;10.50;1.00;;;;;;5013550;28;20090;-83
2022/06/04 02:57:13;;;;;;;15.40;9.13;;;10.40;99.90;;;;;;4979292;28;20058;-83
2022/06/04 02:59:40;;;;;;;16.88;9.05;;;10.40;99.90;;;;;;4985347;28;20583;-83
2022/06/04 03:02:10;;;;;;;14.70;8.95;;;10.40;99.90;;;;;;5003911;28;20052;-83
2022/06/04 03:04:51;;;;;;;14.80;10.07;;;10.50;99.90;;;;;;5014292;28;20053;-83
2022/06/04 03:07:22;;;;;;;14.70;9.60;;;10.40;1.00;;;;;;5005728;28;20041;-83
2022/06/04 03:09:53;;;;;;;16.95;9.27;;;10.50;99.90;;;;;;5006057;28;20033;-83
2022/06/04 03:12:20;;;;;;;13.60;9.07;;;10.40;99.90;;;;;;4989610;28;20117;-83
2022/06/04 03:14:46;;;;;;;15.18;8.90;;;10.40;99.90;;;;;;4996107;28;20501;-84
2022/06/04 03:17:12;;;;;;;12.98;8.60;;;10.50;99.90;;;;;;5010294;28;20034;-83
2022/06/04 03:19:38;;;;;;;17.63;8.90;;;10.50;99.90;;;;;;4987293;28;20120;-83
2022/06/04 03:22:05;;;;;;;13.02;8.30;;;10.40;99.90;;;;;;4981548;28;20038;-82
2022/06/04 03:24:31;;;;;;;10.95;7.97;;;10.40;99.90;;;;;;5003467;28;20049;-83
2022/06/04 03:26:57;;;;;;;13.60;7.65;;;10.40;99.90;;;;;;4983818;28;20038;-83
2022/06/04 03:29:23;;;;;;;13.68;8.23;;;10.50;99.90;;;;;;4987062;28;20034;-83
2022/06/04 03:31:52;;;;;;;14.50;8.73;;;10.50;99.90;;;;;;4986038;28;20084;-83
2022/06/04 03:34:18;;;;;;;15.70;8.80;;;10.50;99.90;;;;;;4987981;28;20501;-83
2022/06/04 03:36:44;;;;;;;16.65;8.70;;;10.40;99.90;;;;;;4989821;28;20089;-82
2022/06/04 03:39:10;;;;;;;14.00;8.30;;;10.40;99.90;;;;;;4989775;28;20049;-83
2022/06/04 03:41:37;;;;;;;15.82;8.23;;;10.50;99.90;;;;;;5013371;28;20046;-83
2022/06/04 03:44:04;;;;;;;12.20;8.63;;;10.50;99.90;;;;;;4987440;28;20288;-83
2022/06/04 03:46:29;;;;;;;12.18;8.07;;;10.50;99.90;;;;;;4986888;28;20050;-82
2022/06/04 03:48:57;;;;;;;15.95;8.68;;;10.60;99.90;;;;;;5001619;28;20046;-83
2022/06/04 03:51:24;;;;;;;11.88;8.07;;;10.50;99.90;;;;;;5013201;28;20042;-83
2022/06/04 03:53:59;;;;;;;11.20;7.82;;;10.60;99.90;;;;;;4991438;28;20084;-83
2022/06/04 03:56:25;;;;;;;12.20;7.50;;;10.60;99.90;;;;;;4984548;28;20264;-83
2022/06/04 03:58:51;;;;;;;11.40;7.30;;;10.60;99.90;;;;;;4984898;28;20049;-83
2022/06/04 04:01:26;;;;;;;10.75;7.30;;;10.60;99.90;;;;;;5004346;28;20042;-82
2022/06/04 04:03:51;;;;;;;10.95;6.95;;;10.70;99.90;;;;;;4998072;28;20118;-82
2022/06/04 04:06:21;;;;;;;10.18;7.28;;;10.70;99.90;;;;;;4987223;28;20038;-83
2022/06/04 04:08:46;;;;;;;11.95;6.80;;;10.70;99.90;;;;;;5011305;28;20135;-83
2022/06/04 04:11:14;;;;;;;11.13;6.57;;;10.80;99.90;;;;;;5000327;28;20034;-82
2022/06/04 04:13:40;;;;;;;10.68;6.35;;;10.80;99.90;;;;;;4984048;28;20064;-83
2022/06/04 04:16:11;;;;;;;10.60;6.43;;;10.90;99.90;;;;;;4997223;28;20058;-82
2022/06/04 04:18:37;;;;;;;14.65;6.80;;;10.90;99.90;;;;;;4989047;28;20049;-83
2022/06/04 04:21:05;;;;;;;9.63;6.05;;;10.90;99.90;;;;;;4985967;28;20046;-83
2022/06/04 04:23:31;;;;;;;8.30;5.80;;;11.00;99.90;;;;;;4987356;28;20706;-82
2022/06/04 04:25:57;;;;;;;7.78;5.93;;;11.10;99.90;;;;;;4980617;28;20039;-83
2022/06/04 04:28:23;;;;;;;12.57;6.18;;;11.10;99.90;;;;;;4985392;28;20042;-82
2022/06/04 04:30:48;;;;;;;10.00;5.97;;;11.20;99.90;;;;;;4986306;28;20379;-82
2022/06/04 04:33:14;;;;;;;11.20;5.75;;;11.30;99.90;;;;;;4990362;28;20077;-82
2022/06/04 04:35:41;;;;;;;8.30;5.72;;;11.40;99.90;;;;;;4984768;28;20088;-82
2022/06/04 04:38:07;;;;;;;7.88;6.25;;;11.50;99.90;;;;;;5011386;28;20553;-82
2022/06/04 04:40:34;;;;;;;9.98;5.75;;;11.50;99.90;;;;;;4983447;28;20042;-82
2022/06/04 04:43:00;;;;;;;9.23;5.70;;;11.60;99.90;;;;;;4987964;28;20043;-82
2022/06/04 04:45:27;;;;;;;9.68;5.75;;;11.60;99.90;;;;;;4982124;28;20133;-82
2022/06/04 04:47:53;;;;;;;8.45;5.72;;;11.80;99.90;;;;;;4986029;28;20402;-81
2022/06/04 04:50:32;;;;;;;11.50;5.97;;;11.80;99.90;;;;;;4986754;28;20042;-82
2022/06/04 04:52:58;;;;;;;11.30;6.05;;;11.90;99.90;;;;;;5011917;28;20046;-82
2022/06/04 04:55:25;;;;;;;8.75;5.43;;;12.00;99.90;;;;;;4994489;28;20034;-83
2022/06/04 04:57:51;;;;;;;9.55;5.30;;;11.90;80.00;;;;;;4986286;28;20042;-82
2022/06/04 05:00:18;;;;;;;7.57;5.60;;;12.00;99.90;;;;;;5000273;28;20061;-82
2022/06/04 05:02:45;;;;;;;8.75;5.82;;;12.10;96.80;;;;;;5007170;28;20517;-82
2022/06/04 05:05:11;;;;;;;8.65;5.85;;;12.20;98.40;;;;;;4985400;28;20069;-82
2022/06/04 05:07:41;;;;;;;8.27;5.63;;;12.20;99.90;;;;;;4996020;28;20054;-82
2022/06/04 05:10:08;;;;;;;6.63;4.85;;;12.30;45.60;;;;;;5000089;28;20129;-82
2022/06/04 05:12:34;;;;;;;9.27;5.28;;;12.30;30.10;;;;;;4982340;28;20543;-82
2022/06/04 05:15:00;;;;;;;8.57;5.45;;;12.40;41.50;;;;;;4983311;28;20073;-82
2022/06/04 05:17:28;;;;;;;6.43;5.30;;;12.50;11.70;;;;;;4983175;28;20034;-82
2022/06/04 05:19:54;;;;;;;11.85;5.43;;;12.60;1.00;;;;;;4985363;28;20038;-82
2022/06/04 05:22:20;;;;;;;8.80;5.47;;;12.60;1.00;;;;;;5006526;28;20049;-83
2022/06/04 05:24:45;;;;;;;9.25;5.75;;;12.60;1.00;;;;;;4977982;28;20070;-83
2022/06/04 05:27:11;;;;;;;6.80;4.97;;;12.70;1.00;;;;;;4986019;28;20070;-82
2022/06/04 05:29:37;;;;;;;9.43;5.50;;;12.70;1.00;;;;;;4993596;28;20103;-83
2022/06/04 05:32:05;;;;;;;7.57;4.82;;;12.70;1.00;;;;;;4981707;28;20050;-82
2022/06/04 05:34:32;;;;;;;8.60;5.88;;;12.70;1.00;;;;;;4983724;28;20037;-83
2022/06/04 05:36:58;;;;;;;8.27;5.05;;;12.80;10.20;;;;;;4986988;28;20053;-82
2022/06/04 05:39:25;;;;;;;7.35;5.43;;;12.90;1.00;;;;;;4988545;28;20061;-83
2022/06/04 05:41:51;;;;;;;7.88;5.22;;;12.90;1.00;;;;;;5001607;28;20050;-82
2022/06/04 05:44:18;;;;;;;10.05;5.38;;;13.00;1.00;;;;;;4985276;28;20041;-83
2022/06/04 05:46:47;;;;;;;11.68;5.40;;;13.10;1.00;;;;;;4986675;28;20041;-82
2022/06/04 05:49:13;;;;;;;7.30;5.03;;;13.10;1.00;;;;;;5004752;28;20049;-82
2022/06/04 05:51:42;;;;;;;9.35;5.30;;;13.40;1.00;;;;;;4981875;28;20400;-83
2022/06/04 05:54:11;;;;;;;8.85;5.03;;;13.30;1.00;;;;;;4982566;28;20058;-83
2022/06/04 05:56:43;;;;;;;9.05;4.90;;;13.30;1.00;;;;;;4987047;28;20046;-83
2022/06/04 05:59:11;;;;;;;7.78;5.18;;;13.30;1.00;;;;;;4986985;28;20042;-83
2022/06/04 06:01:38;;;;;;;8.98;5.22;;;13.40;1.00;;;;;;4979309;28;20049;-83
2022/06/04 06:04:09;;;;;;;9.63;5.15;;;13.40;1.00;;;;;;5011346;28;20741;-83
2022/06/04 06:06:38;;;;;;;8.05;5.43;;;13.40;1.00;;;;;;4985403;28;20096;-83
2022/06/04 06:09:07;;;;;;;7.63;4.65;;;13.60;1.00;;;;;;4989483;28;20049;-82
2022/06/04 06:11:36;;;;;;;8.35;5.25;;;13.60;1.00;;;;;;5012832;28;20133;-83
2022/06/04 06:14:03;;;;;;;11.02;5.40;;;13.70;1.00;;;;;;4987907;28;20499;-82
2022/06/04 06:16:31;;;;;;;8.85;5.10;;;13.90;99.90;;;;;;4990213;28;20046;-83
2022/06/04 06:18:58;;;;;;;6.35;4.72;;;13.80;99.90;;;;;;5002129;28;20117;-83
2022/06/04 06:21:30;;;;;;;7.63;5.32;;;13.70;99.90;;;;;;4991786;28;20042;-83
2022/06/04 06:23:57;;;;;;;7.25;5.05;;;13.70;99.90;;;;;;4988318;28;20042;-83
2022/06/04 06:26:26;;;;;;;8.82;5.57;;;13.70;99.90;;;;;;5004244;28;20474;-83
2022/06/04 06:28:55;;;;;;;8.45;5.47;;;13.70;99.90;;;;;;4987423;28;20048;-83
2022/06/04 06:31:26;;;;;;;8.50;5.50;;;13.80;99.90;;;;;;4985510;28;20042;-83
2022/06/04 06:33:52;;;;;;;7.15;5.68;;;14.00;1.00;;;;;;4988492;28;20042;-83
2022/06/04 06:36:20;;;;;;;10.32;5.43;;;13.90;99.90;;;;;;4984322;28;20133;-83
2022/06/04 06:38:50;;;;;;;9.95;5.63;;;13.90;1.00;;;;;;5001962;28;20350;-83
2022/06/04 06:41:18;;;;;;;7.78;5.25;;;13.90;99.90;;;;;;5000241;28;20485;-83
2022/06/04 06:43:49;;;;;;;8.05;5.63;;;13.60;99.90;;;;;;4983767;28;20054;-83
2022/06/04 06:46:36;;;;;;;7.95;5.80;;;13.70;1.00;;;;;;5000486;28;20720;-83
2022/06/04 06:49:04;;;;;;;11.38;6.10;;;14.20;99.90;;;;;;5013083;28;20057;-83
2022/06/04 06:51:36;;;;;;;8.18;4.93;;;14.30;99.90;;;;;;4993001;28;20367;-83
2022/06/04 06:54:03;;;;;;;7.35;5.10;;;14.50;99.90;;;;;;4988416;28;20042;-83
2022/06/04 06:56:33;;;;;;;7.38;4.82;;;14.50;99.90;;;;;;4999620;28;20068;-83
2022/06/04 06:59:00;;;;;;;8.57;5.13;;;14.60;99.90;;;;;;4984424;28;20124;-83
2022/06/04 07:01:27;;;;;;;10.30;5.57;;;14.80;99.90;;;;;;4977230;28;20381;-83
2022/06/04 07:03:55;;;;;;;8.00;4.90;;;14.80;99.90;;;;;;4999093;28;20088;-83
2022/06/04 07:06:37;;;;;;;7.25;4.85;;;14.80;99.90;;;;;;5007581;28;20053;-83
2022/06/04 07:09:07;;;;;;;7.88;5.10;;;14.70;99.90;;;;;;5006706;28;20069;-83
2022/06/04 07:11:36;;;;;;;6.88;5.55;;;14.70;99.90;;;;;;5008341;28;20125;-84
2022/06/04 07:14:01;;;;;;;7.90;5.40;;;14.40;99.90;;;;;;5010862;28;20050;-83
2022/06/04 07:16:27;;;;;;;6.93;5.32;;;14.80;99.90;;;;;;4980582;28;20044;-84
2022/06/04 07:18:53;;;;;;;6.38;5.22;;;14.60;99.90;;;;;;4974765;28;20049;-84
2022/06/04 07:21:19;;;;;;;6.07;4.63;;;14.80;99.90;;;;;;5000315;28;20038;-83
2022/06/04 07:23:46;;;;;;;6.35;5.05;;;15.00;99.90;;;;;;4979216;28;20046;-83
2022/06/04 07:26:13;;;;;;;7.18;4.78;;;14.70;99.90;;;;;;4998539;28;20034;-84
2022/06/04 07:28:40;;;;;;;6.82;5.38;;;14.90;99.90;;;;;;4997819;28;20062;-84
2022/06/04 07:31:07;;;;;;;5.63;4.47;;;15.10;99.90;;;;;;4980877;28;20046;-83
2022/06/04 07:33:33;;;;;;;7.15;4.63;;;15.20;99.90;;;;;;4983910;28;20081;-84
2022/06/04 07:36:00;;;;;;;8.05;5.20;;;14.90;99.90;;;;;;5006488;28;20536;-83
2022/06/04 07:38:26;;;;;;;6.63;5.00;;;15.10;99.90;;;;;;4974305;28;20082;-83
2022/06/04 07:40:52;;;;;;;6.25;4.90;;;15.10;99.90;;;;;;4998269;28;20348;-83
2022/06/04 07:43:21;;;;;;;6.03;4.90;;;15.10;99.90;;;;;;4980006;28;20482;-83
2022/06/04 07:45:47;;;;;;;7.60;4.85;;;15.30;99.90;;;;;;5011744;28;20058;-83
2022/06/04 07:48:13;;;;;;;7.95;4.72;;;15.10;99.90;;;;;;4988410;28;20029;-83
2022/06/04 07:50:39;;;;;;;6.82;5.25;;;15.30;99.90;;;;;;4996407;28;20114;-83
2022/06/04 07:53:06;;;;;;;9.88;4.63;;;15.30;99.90;;;;;;4997149;28;20037;-82
2022/06/04 07:55:35;;;;;;;7.25;5.18;;;15.40;99.90;;;;;;4979401;28;20285;-83
2022/06/04 07:58:01;;;;;;;8.70;4.80;;;15.40;99.90;;;;;;4980843;28;20093;-83
2022/06/04 08:00:27;;;;;;;6.85;5.00;;;15.50;99.90;;;;;;4978670;28;20394;-83
2022/06/04 08:02:52;;;;;;;7.03;5.00;;;15.20;99.90;;;;;;5000686;28;20045;-83
2022/06/04 08:05:18;;;;;;;6.85;4.70;;;15.20;99.90;;;;;;4997876;28;20042;-83
2022/06/04 08:07:44;;;;;;;6.53;5.32;;;15.50;99.90;;;;;;4979115;28;20050;-83
2022/06/04 08:10:12;;;;;;;8.07;5.18;;;15.90;99.90;;;;;;5009687;28;20144;-83
2022/06/04 08:12:47;;;;;;;6.97;4.97;;;15.80;99.90;;;;;;5008011;28;20592;-83
2022/06/04 08:15:14;;;;;;;9.05;5.55;;;15.90;99.90;;;;;;4976029;28;20073;-83
2022/06/04 08:17:40;;;;;;;7.40;5.10;;;16.00;99.90;;;;;;4979196;28;20082;-83
2022/06/04 08:20:07;;;;;;;7.90;4.65;;;16.00;99.90;;;;;;4994233;28;20096;-82
2022/06/04 08:22:33;;;;;;;7.00;4.75;;;16.40;99.90;;;;;;4976842;28;20096;-82
2022/06/04 08:24:59;;;;;;;8.45;4.97;;;16.50;99.90;;;;;;4991654;28;20478;-82
2022/06/04 08:27:24;;;;;;;9.20;5.20;;;16.50;99.90;;;;;;4974931;28;20057;-83
2022/06/04 08:29:50;;;;;;;10.82;5.00;;;16.00;99.90;;;;;;4985907;28;20038;-83
2022/06/04 08:32:16;;;;;;;5.63;4.80;;;16.10;99.90;;;;;;4987529;28;20038;-83
2022/06/04 08:34:42;;;;;;;9.40;5.53;;;16.30;99.90;;;;;;4985065;28;20046;-83
2022/06/04 08:37:08;;;;;;;6.45;4.93;;;16.40;99.90;;;;;;4985453;28;20192;-82
2022/06/04 08:39:36;;;;;;;5.57;4.63;;;16.00;99.90;;;;;;4986219;28;20509;-83
2022/06/04 08:42:11;;;;;;;7.43;4.93;;;16.30;99.90;;;;;;5002074;28;20055;-83
2022/06/04 08:44:51;;;;;;;;;;;16.00;99.90;;;;;;4988276;28;20049;-82
2022/06/04 08:47:35;;;;;;;6.45;4.57;;;16.40;99.90;;;;;;5001447;28;19925;-83
2022/06/04 08:50:09;;;;;;;6.80;5.38;;;16.30;99.90;;;;;;4985990;28;20388;-83
2022/06/04 08:52:42;;;;;;;6.47;4.72;;;16.30;99.90;;;;;;4998592;28;20128;-82
2022/06/04 08:58:23;;;;;;;8.13;4.70;;;16.70;99.90;;;;;;4983585;28;20050;-83
2022/06/04 09:01:12;;;;;;;8.50;4.20;;;17.40;99.90;;;;;;4972434;28;20057;-83
2022/06/04 09:04:02;;;;;;;7.80;4.63;;;17.30;99.90;;;;;;4988569;28;20533;-83
2022/06/04 09:06:39;;;;;;;8.05;4.60;;;17.60;99.90;;;;;;4975092;28;20481;-83
2022/06/04 09:09:16;;;;;;;7.20;4.25;;;17.60;99.90;;;;;;4976693;28;20069;-83
2022/06/04 09:11:54;;;;;;;6.40;4.32;;;17.60;99.90;;;;;;4976523;28;20047;-82
2022/06/04 09:14:29;;;;;;;4.82;3.95;;;17.60;99.90;;;;;;4977198;28;20203;-81
2022/06/04 09:17:05;;;;;;;6.32;4.35;;;17.60;99.90;;;;;;5008062;28;20046;-82
2022/06/04 09:19:35;;;;;;;7.43;4.30;;;17.50;99.90;;;;;;5007289;28;20121;-82
2022/06/04 09:22:08;;;;;;;6.05;4.38;;;17.10;99.90;;;;;;5006326;28;20376;-82
2022/06/04 09:24:33;;;;;;;5.78;3.90;;;16.90;99.90;;;;;;5010920;28;20054;-82
2022/06/04 09:27:12;;;;;;;6.38;4.75;;;17.10;99.90;;;;;;4974048;28;20427;-82
2022/06/04 09:30:19;;;;;;;7.82;4.35;;;17.00;99.90;;;;;;5006110;28;20542;-82
2022/06/04 09:33:03;;;;;;;6.00;4.22;;;17.20;99.90;;;;;;4978244;28;20060;-82
2022/06/04 09:35:35;;;;;;;5.75;4.15;;;17.60;99.90;;;;;;4992646;28;20128;-82
2022/06/04 09:38:02;;;;;;;8.40;4.50;;;17.40;99.90;;;;;;4983118;28;20046;-81
2022/06/04 09:40:31;;;;;;;7.38;4.63;;;17.10;99.90;;;;;;4981311;28;20129;-82
2022/06/04 09:43:16;;;;;;;5.43;4.07;;;17.30;99.90;;;;;;5014253;28;20086;-82
2022/06/04 09:45:52;;;;;;;6.18;4.20;;;17.80;99.90;;;;;;4989503;28;20111;-83
2022/06/04 09:48:31;;;;;;;7.15;4.40;;;18.30;99.90;;;;;;4990700;28;20137;-82
2022/06/04 09:51:14;;;;;;;7.13;4.45;;;18.50;99.90;;;;;;4981676;28;20080;-82
2022/06/04 09:53:46;;;;;;;6.18;4.00;;;18.50;99.90;;;;;;5009162;28;20116;-82
2022/06/04 09:56:38;;;;;;;7.47;3.80;;;18.10;99.90;;;;;;4983734;28;20301;-83
2022/06/04 09:59:24;;;;;;;7.32;4.05;;;18.00;99.90;;;;;;5009917;28;20043;-82
2022/06/04 10:01:57;;;;;;;5.82;4.00;;;18.80;99.90;;;;;;4993733;28;20050;-82
2022/06/04 10:04:34;;;;;;;5.90;4.05;;;18.50;99.90;;;;;;5002943;28;20436;-82
2022/06/04 10:07:11;;;;;;;4.97;3.70;;;19.00;99.90;;;;;;4976065;28;20497;-82
2022/06/04 10:09:58;;;;;;;7.30;4.00;;;18.90;98.20;;;;;;4978015;28;20084;-82
2022/06/04 10:15:41;;;;;;;5.72;3.95;;;18.60;99.90;;;;;;5010231;28;20768;-82
2022/06/04 10:18:26;;;;;;;4.63;3.85;;;18.70;99.90;;;;;;5010499;28;20046;-82
2022/06/04 10:21:19;;;;;;;7.70;3.67;;;18.30;99.90;;;;;;5004386;28;20421;-82
2022/06/04 10:23:47;;;;;;;5.65;3.60;;;18.10;99.90;;;;;;4991542;28;20084;-82
2022/06/04 10:26:16;;;;;;;6.47;3.75;;;17.80;99.90;;;;;;4995611;28;20050;-82
2022/06/04 10:29:02;;;;;;;6.05;3.97;;;18.50;99.90;;;;;;5010852;28;20215;-82
2022/06/04 10:31:30;;;;;;;5.95;3.95;;;18.50;99.90;;;;;;4991726;28;20050;-82
2022/06/04 10:34:16;;;;;;;6.43;3.65;;;18.80;92.50;;;;;;4998423;28;20105;-82
2022/06/04 10:36:59;;;;;;;4.68;3.63;;;19.20;99.90;;;;;;5015826;28;20539;-82
2022/06/04 10:39:48;;;;;;;8.10;3.85;;;18.70;98.80;;;;;;5002064;28;20530;-82
2022/06/04 10:42:23;;;;;;;5.40;3.50;;;19.30;99.90;;;;;;4998115;28;20093;-83
2022/06/04 10:45:00;;;;;;;7.28;3.95;;;19.30;93.40;;;;;;5001111;28;20043;-83
2022/06/04 10:47:31;;;;;;;5.65;4.00;;;18.80;99.90;;;;;;4988954;28;20034;-83
2022/06/04 10:50:26;;;;;;;6.45;4.00;;;19.30;99.90;;;;;;5014569;28;20042;-82
2022/06/04 10:52:55;;;;;;;6.38;3.58;;;19.50;97.30;;;;;;5012145;28;20077;-83
2022/06/04 10:55:35;;;;;;;6.70;3.75;;;19.70;91.80;;;;;;4981769;28;20513;-83
2022/06/04 10:58:23;;;;;;;6.13;3.72;;;20.10;98.50;;;;;;5009235;28;20039;-83
2022/06/04 11:00:52;;;;;;;4.25;3.60;;;19.40;90.00;;;;;;4998893;28;20541;-82
2022/06/04 11:03:50;;;;;;;5.25;4.30;;;19.40;99.90;;;;;;4999201;28;20073;-82
2022/06/04 11:06:26;;;;;;;6.80;4.10;;;18.80;99.90;;;;;;4967228;28;20129;-83
2022/06/04 11:08:59;;;;;;;6.68;3.75;;;19.80;96.40;;;;;;5014682;28;20042;-82
2022/06/04 11:11:39;;;;;;;4.22;3.83;;;19.40;78.80;;;;;;5009655;28;20050;-82
2022/06/04 11:14:26;;;;;;;6.18;3.60;;;19.30;86.40;;;;;;4978447;28;20513;-82
2022/06/04 11:17:00;;;;;;;4.13;3.53;;;19.90;91.20;;;;;;4978998;28;20112;-82
2022/06/04 11:19:35;;;;;;;6.82;4.00;;;20.10;78.50;;;;;;5010582;28;20462;-83
2022/06/04 11:22:20;;;;;;;;;;;18.80;99.90;;;;;;5005689;28;20286;-83
2022/06/04 11:24:59;;;;;;;6.35;4.00;;;18.70;90.90;;;;;;4981150;28;19925;-82
2022/06/04 11:27:32;;;;;;;5.95;4.32;;;19.50;99.90;;;;;;5005790;28;20054;-82
2022/06/04 11:29:58;;;;;;;6.13;3.90;;;18.70;99.90;;;;;;4977751;28;20104;-82
2022/06/04 11:32:32;;;;;;;4.97;3.90;;;18.70;99.90;;;;;;5012484;28;20030;-82
2022/06/04 11:35:17;;;;;;;6.85;4.10;;;19.40;99.90;;;;;;4993730;28;20552;-82
2022/06/04 11:38:14;;;;;;;5.15;3.97;;;19.00;99.90;;;;;;4992035;28;20189;-83
2022/06/04 11:40:42;;;;;;;7.57;4.30;;;19.20;99.90;;;;;;4994689;28;20156;-82
2022/06/04 11:43:21;;;;;;;5.97;3.85;;;19.30;99.90;;;;;;5010138;28;20054;-83
2022/06/04 11:46:32;;;;;;;7.07;4.10;;;19.80;99.90;;;;;;5005337;28;20132;-83
2022/06/04 11:49:01;;;;;;;8.68;4.38;;;20.40;98.30;;;;;;4951078;28;20049;-83
2022/06/04 11:51:48;;;;;;;7.25;4.47;;;19.70;99.90;;;;;;4987219;28;20038;-83
2022/06/04 11:54:33;;;;;;;6.30;4.30;;;20.50;94.20;;;;;;4975763;28;20050;-83
2022/06/04 11:57:28;;;;;;;6.50;4.00;;;20.30;99.90;;;;;;4978297;28;20042;-84
2022/06/04 12:00:30;;;;;;;5.65;4.20;;;20.90;99.90;;;;;;4993423;28;20121;-83
2022/06/04 12:03:05;;;;;;;6.72;4.53;;;20.60;50.70;;;;;;4981965;28;20521;-83
2022/06/04 12:06:02;;;;;;;5.68;4.60;;;20.20;49.30;;;;;;4983391;28;20042;-83
2022/06/04 12:08:42;;;;;;;7.57;4.53;;;19.70;99.90;;;;;;4987381;28;20524;-82
2022/06/04 12:11:15;;;;;;;6.35;4.15;;;20.30;99.90;;;;;;5003228;28;20069;-83
2022/06/04 12:13:54;;;;;;;9.07;4.60;;;19.50;86.50;;;;;;4999706;28;20415;-85
2022/06/04 12:16:36;;;;;;;6.35;4.10;;;19.30;69.60;;;;;;4989931;28;20049;-84
2022/06/04 12:19:04;;;;;;;8.32;4.38;;;19.60;95.80;;;;;;4999048;28;20046;-84
2022/06/04 12:24:41;;;;;;;7.55;4.50;;;20.80;63.80;;;;;;4977211;28;20672;-84
2022/06/04 12:27:24;;;;;;;8.38;4.32;;;19.30;54.50;;;;;;5011521;28;20066;-84
2022/06/04 12:29:52;;;;;;;9.23;4.30;;;20.30;71.70;;;;;;4997289;28;20442;-83
2022/06/04 12:32:21;;;;;;;7.60;4.78;;;19.90;73.00;;;;;;5012705;28;20080;-85
2022/06/04 12:35:03;;;;;;;6.90;4.65;;;20.00;70.80;;;;;;4996553;28;20140;-84
2022/06/04 12:37:36;;;;;;;6.30;4.40;;;20.30;62.60;;;;;;4996203;28;20057;-83
2022/06/04 12:40:38;;;;;;;6.03;4.22;;;20.00;74.30;;;;;;4998227;28;20057;-84
2022/06/04 12:43:18;;;;;;;7.65;4.47;;;20.50;92.70;;;;;;4956325;28;20126;-85
2022/06/04 12:45:47;;;;;;;5.38;4.40;;;20.90;73.10;;;;;;4975975;28;20043;-83
2022/06/04 12:48:28;;;;;;;12.02;4.75;;;20.20;45.90;;;;;;4984210;28;20091;-84
2022/06/04 12:51:25;;;;;;;5.78;4.00;;;20.80;47.30;;;;;;4997974;28;20156;-83
2022/06/04 12:53:59;;;;;;;11.00;4.50;;;21.60;29.20;;;;;;5009649;28;20160;-84
2022/06/04 12:56:34;;;;;;;9.45;4.38;;;21.40;29.20;;;;;;4982482;28;20042;-84
2022/06/04 12:59:03;;;;;;;8.32;4.10;;;20.10;27.50;;;;;;4983030;28;20054;-84
2022/06/04 13:01:29;;;;;;;6.45;4.03;;;20.30;31.50;;;;;;4983381;28;20054;-84
2022/06/04 13:04:10;;;;;;;6.05;4.07;;;21.00;25.80;;;;;;5010093;28;20035;-84
2022/06/04 13:07:05;;;;;;;8.50;4.30;;;20.60;51.60;;;;;;5012397;28;20038;-85
2022/06/04 13:09:58;;;;;;;8.27;5.60;;;21.30;30.30;;;;;;4992161;28;20383;-85
2022/06/04 13:13:06;;;;;;;8.00;4.45;;;19.70;99.90;;;;;;4994804;28;20074;-84
2022/06/04 13:16:03;;;;;;;6.88;4.10;;;20.90;59.50;;;;;;4978272;28;20045;-84
2022/06/04 13:18:35;;;;;;;6.85;3.95;;;21.00;65.40;;;;;;5010989;28;20072;-83
2022/06/04 13:21:05;;;;;;;6.35;4.25;;;21.10;14.30;;;;;;4996773;28;20043;-84
2022/06/04 13:23:40;;;;;;;6.60;3.80;;;20.30;26.00;;;;;;4997990;28;20361;-84
2022/06/04 13:26:15;;;;;;;7.88;4.10;;;20.10;26.60;;;;;;4982675;28;20038;-85
2022/06/04 13:28:44;;;;;;;7.63;4.30;;;21.60;43.30;;;;;;4981482;28;20057;-85
2022/06/04 13:31:23;;;;;;;6.97;4.10;;;21.80;29.20;;;;;;5010837;28;20054;-84